Time;durP1;ratioP1;P1;durP2;ratioP2;P2;SDS_P1;SDS_P2;PMS_P1;PMS_P2;Temp;Humidity;BMP_temperature;BMP_pressure;BME280_temperature;BME280_humidity;BME280_pressure;Samples;Min_cycle;Max_cycle;Signal;HPM_P1;HPM_P2
2023/05/26 00:01:58;;;;;;;20.80;7.17;;;16.00;66.90;;;;;;5114332;28;20450;-56
2023/05/26 00:04:25;;;;;;;18.50;6.70;;;16.00;67.10;;;;;;5114190;28;20447;-56
2023/05/26 00:06:54;;;;;;;18.30;6.10;;;16.00;67.30;;;;;;5114163;28;20523;-56
2023/05/26 00:09:21;;;;;;;19.03;5.93;;;16.00;67.20;;;;;;5114225;28;20443;-57
2023/05/26 00:11:48;;;;;;;12.53;5.77;;;16.00;67.60;;;;;;5113832;28;20931;-57
2023/05/26 00:14:15;;;;;;;18.60;6.30;;;15.90;67.50;;;;;;5114132;28;20443;-56
2023/05/26 00:16:43;;;;;;;19.47;5.80;;;15.90;67.80;;;;;;5114068;28;20470;-56
2023/05/26 00:19:11;;;;;;;20.40;6.67;;;15.90;67.90;;;;;;5114030;28;20453;-56
2023/05/26 00:21:39;;;;;;;16.97;5.90;;;15.80;67.90;;;;;;5114053;28;20449;-56
2023/05/26 00:24:07;;;;;;;19.03;6.00;;;15.80;67.90;;;;;;5114148;28;20447;-56
2023/05/26 00:26:33;;;;;;;20.23;6.70;;;15.80;68.40;;;;;;5113935;28;20489;-56
2023/05/26 00:29:00;;;;;;;18.33;5.53;;;15.70;68.50;;;;;;5113942;28;20489;-56
2023/05/26 00:31:27;;;;;;;15.73;5.93;;;15.70;68.70;;;;;;5113902;28;20447;-56
2023/05/26 00:33:55;;;;;;;22.77;7.80;;;15.60;69.60;;;;;;5113869;28;20439;-56
2023/05/26 00:36:22;;;;;;;13.63;5.10;;;15.60;68.90;;;;;;5113829;28;20462;-56
2023/05/26 00:38:48;;;;;;;20.33;5.80;;;15.60;69.10;;;;;;5113522;28;20955;-57
2023/05/26 00:41:15;;;;;;;15.97;5.60;;;15.50;69.20;;;;;;5113928;28;20447;-57
2023/05/26 00:43:42;;;;;;;18.27;5.90;;;15.50;69.40;;;;;;5113874;28;20504;-56
2023/05/26 00:46:08;;;;;;;12.73;5.00;;;15.50;69.50;;;;;;5113972;28;20939;-56
2023/05/26 00:48:35;;;;;;;26.27;5.67;;;15.40;69.50;;;;;;5113949;28;20490;-56
2023/05/26 00:51:03;;;;;;;19.47;6.13;;;15.40;70.50;;;;;;5113867;28;20814;-56
2023/05/26 00:53:30;;;;;;;13.30;5.70;;;15.40;69.90;;;;;;5114604;28;20447;-56
2023/05/26 00:55:57;;;;;;;16.50;5.07;;;15.40;70.00;;;;;;5118114;28;20467;-56
2023/05/26 00:58:25;;;;;;;15.47;5.80;;;15.30;70.10;;;;;;5117991;28;20447;-56
2023/05/26 01:00:51;;;;;;;20.30;5.43;;;15.30;70.00;;;;;;5117969;28;20464;-56
2023/05/26 01:03:19;;;;;;;19.00;5.27;;;15.30;70.10;;;;;;5117910;28;20813;-56
2023/05/26 01:05:46;;;;;;;16.00;6.43;;;15.30;70.10;;;;;;5117843;28;20459;-56
2023/05/26 01:08:14;;;;;;;15.17;5.10;;;15.30;70.40;;;;;;5117411;28;21017;-56
2023/05/26 01:10:40;;;;;;;14.10;5.00;;;15.20;70.50;;;;;;5117486;28;20480;-56
2023/05/26 01:13:12;;;;;;;14.90;5.70;;;15.20;70.50;;;;;;5117703;28;20469;-56
2023/05/26 01:15:46;;;;;;;17.00;5.07;;;15.20;70.60;;;;;;5117653;28;20462;-57
2023/05/26 01:18:16;;;;;;;13.90;4.70;;;15.10;70.50;;;;;;5118601;28;20850;-56
2023/05/26 01:20:48;;;;;;;15.23;6.20;;;15.10;70.80;;;;;;5117476;28;20541;-56
2023/05/26 01:23:46;;;;;;;19.30;4.97;;;15.10;71.30;;;;;;5117259;28;20901;-56
2023/05/26 01:26:52;;;;;;;20.63;5.73;;;15.10;71.30;;;;;;5115430;28;20961;-56
2023/05/26 01:29:23;;;;;;;14.43;5.03;;;15.10;71.20;;;;;;5034433;28;20473;-56
2023/05/26 01:31:50;;;;;;;11.87;4.70;;;15.10;71.00;;;;;;5104786;28;20450;-56
2023/05/26 01:34:16;;;;;;;14.90;5.40;;;15.10;70.90;;;;;;5117052;28;20446;-56
2023/05/26 01:36:43;;;;;;;20.20;5.50;;;15.10;70.90;;;;;;5117096;28;20459;-56
2023/05/26 01:39:10;;;;;;;22.10;5.63;;;15.10;70.80;;;;;;5117191;28;20465;-56
2023/05/26 01:41:43;;;;;;;13.10;4.43;;;15.00;71.60;;;;;;5117105;28;20793;-56
2023/05/26 01:44:13;;;;;;;16.17;5.20;;;15.00;70.70;;;;;;5117169;28;20453;-56
2023/05/26 01:46:46;;;;;;;18.50;5.57;;;15.00;70.80;;;;;;5117077;28;20473;-56
2023/05/26 01:49:14;;;;;;;12.17;4.87;;;15.00;70.90;;;;;;5116912;28;20466;-56
2023/05/26 01:51:46;;;;;;;14.97;4.80;;;14.90;71.10;;;;;;5116911;28;20859;-56
2023/05/26 01:54:17;;;;;;;24.87;6.10;;;14.90;71.40;;;;;;5116594;28;20901;-56
2023/05/26 01:56:45;;;;;;;19.20;5.70;;;14.90;71.70;;;;;;5116969;28;20463;-56
2023/05/26 01:59:13;;;;;;;16.47;4.73;;;14.80;71.60;;;;;;5116615;28;20998;-56
2023/05/26 02:01:42;;;;;;;14.90;4.93;;;14.80;71.60;;;;;;5116723;28;20450;-56
2023/05/26 02:04:10;;;;;;;13.40;4.90;;;14.80;71.90;;;;;;5116652;28;20446;-56
2023/05/26 02:06:37;;;;;;;19.03;5.33;;;14.80;71.90;;;;;;5116314;28;20463;-56
2023/05/26 02:09:05;;;;;;;16.00;4.90;;;14.80;71.90;;;;;;5116237;28;21124;-56
2023/05/26 02:11:31;;;;;;;14.00;4.47;;;14.70;71.90;;;;;;5116013;28;20454;-56
2023/05/26 02:13:58;;;;;;;20.13;5.47;;;14.70;71.90;;;;;;5116521;28;20450;-56
2023/05/26 02:16:26;;;;;;;19.73;4.90;;;14.70;72.00;;;;;;5116322;28;20465;-57
2023/05/26 02:18:54;;;;;;;16.80;5.60;;;14.60;72.00;;;;;;5116431;28;20442;-56
2023/05/26 02:21:21;;;;;;;22.23;5.70;;;14.60;72.00;;;;;;5116384;27;20451;-56
2023/05/26 02:23:47;;;;;;;18.80;5.53;;;14.60;72.20;;;;;;5116158;28;20951;-56
2023/05/26 02:26:14;;;;;;;26.17;6.30;;;14.60;72.30;;;;;;5116223;28;20470;-57
2023/05/26 02:28:42;;;;;;;14.63;5.23;;;14.50;72.60;;;;;;5116110;28;20489;-56
2023/05/26 02:31:08;;;;;;;16.70;4.50;;;14.50;72.80;;;;;;5115828;28;20816;-56
2023/05/26 02:33:40;;;;;;;18.70;5.43;;;14.40;72.60;;;;;;5116077;28;20445;-56
2023/05/26 02:36:08;;;;;;;16.13;5.80;;;14.40;72.80;;;;;;5116071;28;20462;-57
2023/05/26 02:38:35;;;;;;;16.87;5.07;;;14.30;73.10;;;;;;5116049;28;20496;-57
2023/05/26 02:41:01;;;;;;;22.93;5.50;;;14.40;73.50;;;;;;5115970;28;20443;-57
2023/05/26 02:43:28;;;;;;;17.40;5.77;;;14.30;73.60;;;;;;5115883;28;20482;-57
2023/05/26 02:45:55;;;;;;;16.07;5.50;;;14.30;73.60;;;;;;5115449;28;21003;-57
2023/05/26 02:48:21;;;;;;;15.43;4.30;;;14.30;73.70;;;;;;5115471;28;21069;-57
2023/05/26 02:50:48;;;;;;;12.87;5.13;;;14.20;73.60;;;;;;5115429;28;20964;-57
2023/05/26 02:53:17;;;;;;;15.50;4.97;;;14.20;73.90;;;;;;5115825;28;20454;-57
2023/05/26 02:55:44;;;;;;;11.70;4.17;;;14.20;73.90;;;;;;5115674;28;20569;-57
2023/05/26 02:58:12;;;;;;;15.43;4.53;;;14.10;74.10;;;;;;5115629;28;20489;-57
2023/05/26 03:00:39;;;;;;;14.53;4.57;;;14.10;74.20;;;;;;5115294;28;20450;-57
2023/05/26 03:03:06;;;;;;;16.47;5.13;;;14.00;74.40;;;;;;5115227;28;20933;-57
2023/05/26 03:05:33;;;;;;;13.83;5.80;;;14.00;74.60;;;;;;5115519;28;20499;-57
2023/05/26 03:07:59;;;;;;;20.10;4.97;;;13.90;75.00;;;;;;5115372;28;20443;-57
2023/05/26 03:10:27;;;;;;;19.77;5.10;;;13.90;75.00;;;;;;5114935;28;20443;-57
2023/05/26 03:12:54;;;;;;;17.80;3.80;;;13.90;75.20;;;;;;5115564;28;20435;-57
2023/05/26 03:15:22;;;;;;;16.63;5.33;;;13.80;75.20;;;;;;5115174;28;20474;-57
2023/05/26 03:17:50;;;;;;;14.93;4.70;;;13.80;75.50;;;;;;5114768;28;20458;-57
2023/05/26 03:20:17;;;;;;;14.13;4.97;;;13.70;75.60;;;;;;5115235;28;20443;-57
2023/05/26 03:22:43;;;;;;;16.20;4.93;;;13.70;75.70;;;;;;5115155;28;20442;-57
2023/05/26 03:25:10;;;;;;;12.20;4.90;;;13.70;76.10;;;;;;5114992;28;20519;-57
2023/05/26 03:27:40;;;;;;;20.07;5.30;;;13.60;76.20;;;;;;5115069;28;20450;-57
2023/05/26 03:30:07;;;;;;;16.60;5.10;;;13.60;76.30;;;;;;5114920;28;20490;-57
2023/05/26 03:32:34;;;;;;;19.60;4.20;;;13.60;76.50;;;;;;5114913;28;20454;-57
2023/05/26 03:35:01;;;;;;;17.83;4.70;;;13.50;76.60;;;;;;5114874;28;20473;-57
2023/05/26 03:37:28;;;;;;;14.93;4.67;;;13.50;76.90;;;;;;5114528;28;20944;-57
2023/05/26 03:39:54;;;;;;;15.53;5.50;;;13.50;77.20;;;;;;5114816;28;20450;-57
2023/05/26 03:42:21;;;;;;;16.50;5.30;;;13.50;77.20;;;;;;5114455;28;20929;-57
2023/05/26 03:44:49;;;;;;;14.87;4.60;;;13.40;77.30;;;;;;5114762;28;20455;-57
2023/05/26 03:47:16;;;;;;;17.07;6.00;;;13.40;77.50;;;;;;5114895;28;20454;-57
2023/05/26 03:49:43;;;;;;;13.10;4.50;;;13.40;77.80;;;;;;5114854;28;20475;-57
2023/05/26 03:52:09;;;;;;;16.77;5.00;;;13.40;77.90;;;;;;5114739;28;20438;-57
2023/05/26 03:54:36;;;;;;;20.17;4.40;;;13.40;78.10;;;;;;5115047;28;20443;-57
2023/05/26 03:57:03;;;;;;;15.80;5.37;;;13.40;78.40;;;;;;5115899;28;20507;-57
2023/05/26 03:59:29;;;;;;;11.50;4.00;;;13.30;78.40;;;;;;5114908;28;20447;-57
2023/05/26 04:01:58;;;;;;;15.47;4.80;;;13.40;78.60;;;;;;5114646;28;20450;-57
2023/05/26 04:04:25;;;;;;;19.33;5.33;;;13.40;78.80;;;;;;5114520;28;20450;-57
2023/05/26 04:06:52;;;;;;;19.40;4.40;;;13.40;78.90;;;;;;5114475;28;20470;-57
2023/05/26 04:09:18;;;;;;;13.03;5.23;;;13.40;79.00;;;;;;5114224;28;20482;-57
2023/05/26 04:11:46;;;;;;;26.00;6.33;;;13.40;79.10;;;;;;5113876;28;20948;-57
2023/05/26 04:14:12;;;;;;;21.73;5.23;;;13.40;79.20;;;;;;5114299;28;20513;-57
2023/05/26 04:16:39;;;;;;;27.10;5.67;;;13.40;79.40;;;;;;5114176;28;20539;-57
2023/05/26 04:19:07;;;;;;;15.27;5.60;;;13.40;79.30;;;;;;5114025;28;20796;-57
2023/05/26 04:21:35;;;;;;;21.50;5.27;;;13.40;79.30;;;;;;5114103;28;20446;-57
2023/05/26 04:24:02;;;;;;;20.90;5.70;;;13.40;79.30;;;;;;5113814;28;20952;-57
2023/05/26 04:26:33;;;;;;;16.10;5.83;;;13.40;79.50;;;;;;5114019;28;20463;-57
2023/05/26 04:29:00;;;;;;;23.27;7.33;;;13.40;79.70;;;;;;5112920;28;20967;-57
2023/05/26 04:31:29;;;;;;;19.30;5.83;;;13.40;79.80;;;;;;5113984;28;20451;-57
2023/05/26 04:33:56;;;;;;;24.10;6.10;;;13.40;80.10;;;;;;5113619;28;20940;-57
2023/05/26 04:36:24;;;;;;;28.20;6.83;;;13.50;80.20;;;;;;5113914;28;20506;-57
2023/05/26 04:38:51;;;;;;;24.63;6.90;;;13.50;80.40;;;;;;5113547;28;20439;-57
2023/05/26 04:41:19;;;;;;;24.57;7.27;;;13.50;80.70;;;;;;5113923;28;20446;-57
2023/05/26 04:43:45;;;;;;;23.97;7.13;;;13.50;80.90;;;;;;5113898;28;20454;-57
2023/05/26 04:46:13;;;;;;;18.13;6.40;;;13.60;81.20;;;;;;5113837;28;20471;-57
2023/05/26 04:48:40;;;;;;;24.00;7.13;;;13.60;81.50;;;;;;5113676;28;20481;-57
2023/05/26 04:51:08;;;;;;;21.40;7.57;;;13.60;81.50;;;;;;5113779;28;20454;-57
2023/05/26 04:53:36;;;;;;;22.00;7.20;;;13.70;81.60;;;;;;5113385;28;20446;-57
2023/05/26 04:56:03;;;;;;;29.67;7.87;;;13.70;81.40;;;;;;5113639;28;20499;-57
2023/05/26 04:58:31;;;;;;;20.97;7.83;;;13.70;81.30;;;;;;5113557;28;20450;-57
2023/05/26 05:00:58;;;;;;;19.87;8.47;;;13.70;81.50;;;;;;5113638;28;20879;-57
2023/05/26 05:03:26;;;;;;;35.03;9.07;;;13.80;81.20;;;;;;5113615;28;20498;-57
2023/05/26 05:05:53;;;;;;;22.53;8.47;;;13.90;81.00;;;;;;5113580;28;20475;-57
2023/05/26 05:08:20;;;;;;;33.90;9.20;;;13.90;80.90;;;;;;5113259;28;20971;-57
2023/05/26 05:10:48;;;;;;;22.43;8.67;;;14.00;80.80;;;;;;5113318;28;20505;-57
2023/05/26 05:13:14;;;;;;;21.43;7.60;;;14.00;80.60;;;;;;5113538;28;20480;-57
2023/05/26 05:15:41;;;;;;;18.37;7.63;;;14.00;80.40;;;;;;5113410;28;20466;-57
2023/05/26 05:18:08;;;;;;;28.47;9.10;;;14.00;81.20;;;;;;5114291;28;20447;-57
2023/05/26 05:20:34;;;;;;;48.57;9.47;;;14.10;80.50;;;;;;5113150;28;20963;-57
2023/05/26 05:23:02;;;;;;;29.30;8.20;;;14.20;80.70;;;;;;5113472;28;20496;-57
2023/05/26 05:25:29;;;;;;;20.80;7.73;;;14.30;80.60;;;;;;5112997;28;20823;-57
2023/05/26 05:27:57;;;;;;;20.77;8.87;;;14.30;79.80;;;;;;5113403;28;20465;-57
2023/05/26 05:30:24;;;;;;;35.63;8.30;;;14.40;79.90;;;;;;5112948;28;20482;-57
2023/05/26 05:32:51;;;;;;;19.30;7.30;;;14.40;79.00;;;;;;5113321;28;20454;-57
2023/05/26 05:35:18;;;;;;;24.63;8.63;;;14.40;78.80;;;;;;5113276;28;20467;-57
2023/05/26 05:37:44;;;;;;;23.60;9.07;;;14.60;78.90;;;;;;5113308;28;20453;-57
2023/05/26 05:40:12;;;;;;;26.33;8.23;;;14.60;78.70;;;;;;5115088;28;20443;-57
2023/05/26 05:42:39;;;;;;;25.47;7.80;;;14.70;78.60;;;;;;5117025;28;20457;-57
2023/05/26 05:45:08;;;;;;;24.83;10.13;;;14.80;78.40;;;;;;5116999;28;20473;-57
2023/05/26 05:47:35;;;;;;;20.27;8.50;;;14.80;78.00;;;;;;5116669;28;20802;-56
2023/05/26 05:50:01;;;;;;;29.83;10.50;;;14.90;77.60;;;;;;5116528;28;21048;-56
2023/05/26 05:52:28;;;;;;;28.20;8.67;;;15.00;77.30;;;;;;5116956;28;20800;-57
2023/05/26 05:54:55;;;;;;;19.53;7.53;;;15.00;77.30;;;;;;5116771;28;20474;-57
2023/05/26 05:57:22;;;;;;;25.00;8.60;;;15.10;77.00;;;;;;5116858;28;20478;-57
2023/05/26 05:59:48;;;;;;;17.07;7.90;;;15.20;77.70;;;;;;5116694;28;20500;-57
2023/05/26 06:02:16;;;;;;;30.20;9.23;;;15.20;76.70;;;;;;5116717;28;20447;-57
2023/05/26 06:04:43;;;;;;;29.83;9.93;;;15.30;76.10;;;;;;5116594;28;20439;-57
2023/05/26 06:07:10;;;;;;;23.00;8.50;;;15.40;75.80;;;;;;5116564;28;20457;-57
2023/05/26 06:09:36;;;;;;;25.77;8.77;;;15.50;75.60;;;;;;5116241;28;21056;-57
2023/05/26 06:12:04;;;;;;;28.73;9.97;;;15.50;75.40;;;;;;5116158;28;20459;-57
2023/05/26 06:14:30;;;;;;;28.13;9.40;;;15.60;75.20;;;;;;5116194;28;20963;-57
2023/05/26 06:16:57;;;;;;;22.43;8.93;;;15.70;75.10;;;;;;5116108;28;21002;-57
2023/05/26 06:19:25;;;;;;;26.83;8.83;;;15.80;74.80;;;;;;5116063;28;20971;-57
2023/05/26 06:21:52;;;;;;;18.60;8.00;;;15.90;74.40;;;;;;5116441;28;20495;-57
2023/05/26 06:24:18;;;;;;;22.10;9.00;;;15.90;74.00;;;;;;5116320;28;20446;-57
2023/05/26 06:26:45;;;;;;;24.67;10.00;;;16.00;73.90;;;;;;5115884;28;20995;-56
2023/05/26 06:29:12;;;;;;;26.70;9.20;;;16.10;73.90;;;;;;5115846;28;20919;-57
2023/05/26 06:31:38;;;;;;;25.63;10.00;;;16.20;73.90;;;;;;5116176;28;20458;-57
2023/05/26 06:34:05;;;;;;;25.47;10.50;;;16.30;73.40;;;;;;5115861;28;20944;-57
2023/05/26 06:36:33;;;;;;;24.10;8.80;;;16.40;72.80;;;;;;5116194;28;20475;-57
2023/05/26 06:39:00;;;;;;;24.67;9.20;;;16.50;72.20;;;;;;5116049;28;20451;-57
2023/05/26 06:41:27;;;;;;;28.30;9.90;;;16.60;72.00;;;;;;5115662;28;20500;-57
2023/05/26 06:43:53;;;;;;;25.90;9.93;;;16.70;71.80;;;;;;5115977;28;20479;-57
2023/05/26 06:46:20;;;;;;;25.77;10.23;;;16.80;71.30;;;;;;5115801;28;20508;-57
2023/05/26 06:48:47;;;;;;;19.13;10.30;;;16.90;71.00;;;;;;5115807;28;20446;-57
2023/05/26 06:51:14;;;;;;;26.30;9.80;;;17.00;70.60;;;;;;5114697;28;20486;-57
2023/05/26 06:53:42;;;;;;;28.60;10.63;;;17.20;70.50;;;;;;5115833;28;20443;-57
2023/05/26 06:56:08;;;;;;;20.00;9.33;;;17.30;69.40;;;;;;5115404;28;20842;-57
2023/05/26 06:58:35;;;;;;;29.83;9.57;;;17.40;69.50;;;;;;5115731;28;20442;-57
2023/05/26 07:01:03;;;;;;;28.40;10.63;;;17.50;69.00;;;;;;5115741;28;20450;-57
2023/05/26 07:03:30;;;;;;;23.03;9.83;;;17.70;68.90;;;;;;5116422;28;20455;-57
2023/05/26 07:05:58;;;;;;;24.97;10.07;;;17.90;68.70;;;;;;5115572;28;20490;-57
2023/05/26 07:08:26;;;;;;;20.43;10.73;;;18.10;68.00;;;;;;5115556;28;20499;-57
2023/05/26 07:10:54;;;;;;;26.03;12.57;;;18.30;67.20;;;;;;5115193;28;20475;-57
2023/05/26 07:13:21;;;;;;;21.80;12.07;;;18.40;65.80;;;;;;5115039;28;20993;-57
2023/05/26 07:15:48;;;;;;;28.23;11.43;;;18.40;64.20;;;;;;5114982;28;20471;-57
2023/05/26 07:18:14;;;;;;;29.27;12.50;;;18.50;63.90;;;;;;5115317;28;20450;-57
2023/05/26 07:20:41;;;;;;;28.87;10.60;;;18.50;63.40;;;;;;5115217;28;20443;-57
2023/05/26 07:23:08;;;;;;;23.17;9.67;;;18.60;63.50;;;;;;5115187;28;20450;-57
2023/05/26 07:25:35;;;;;;;21.03;9.30;;;18.70;63.20;;;;;;5115119;28;20466;-57
2023/05/26 07:28:03;;;;;;;22.33;10.83;;;18.80;62.60;;;;;;5115111;28;20442;-57
2023/05/26 07:30:29;;;;;;;24.83;9.90;;;18.90;61.50;;;;;;5114948;28;20483;-57
2023/05/26 07:32:56;;;;;;;19.20;8.93;;;19.00;61.10;;;;;;5115769;28;20458;-57
2023/05/26 07:35:23;;;;;;;19.17;8.80;;;19.10;61.00;;;;;;5114863;28;20516;-57
2023/05/26 07:37:49;;;;;;;20.73;8.20;;;19.30;60.90;;;;;;5114586;28;20868;-57
2023/05/26 07:40:16;;;;;;;22.30;8.70;;;19.50;60.70;;;;;;5114519;28;20939;-57
2023/05/26 07:42:44;;;;;;;17.77;7.77;;;19.70;59.90;;;;;;5114783;28;20450;-57
2023/05/26 07:45:12;;;;;;;17.43;7.33;;;19.80;59.20;;;;;;5114739;28;20497;-57
2023/05/26 07:47:40;;;;;;;21.33;8.10;;;19.90;58.80;;;;;;5114794;28;20451;-57
2023/05/26 07:50:08;;;;;;;17.43;7.57;;;20.00;59.00;;;;;;5114270;28;21018;-57
2023/05/26 07:52:35;;;;;;;17.03;6.83;;;20.00;57.80;;;;;;5114605;28;20443;-57
2023/05/26 07:55:02;;;;;;;21.43;8.10;;;20.00;57.20;;;;;;5114558;28;20498;-57
2023/05/26 07:57:28;;;;;;;20.87;7.27;;;20.00;57.50;;;;;;5114609;28;20451;-57
2023/05/26 07:59:55;;;;;;;18.10;8.00;;;20.10;57.60;;;;;;5114498;28;20455;-57
2023/05/26 08:02:23;;;;;;;18.10;6.87;;;20.30;57.30;;;;;;5114296;28;20447;-57
2023/05/26 08:04:50;;;;;;;15.67;6.80;;;20.30;56.80;;;;;;5114401;28;20499;-58
2023/05/26 08:07:17;;;;;;;20.57;7.40;;;20.40;56.80;;;;;;5114372;28;20511;-57
2023/05/26 08:09:44;;;;;;;20.53;7.67;;;20.50;57.00;;;;;;5114357;28;20565;-57
2023/05/26 08:12:10;;;;;;;19.30;7.03;;;20.70;56.60;;;;;;5113868;28;20484;-57
2023/05/26 08:14:37;;;;;;;17.27;7.23;;;20.80;56.30;;;;;;5114343;28;20443;-57
2023/05/26 08:17:04;;;;;;;17.07;6.27;;;21.00;55.90;;;;;;5114291;28;20443;-57
2023/05/26 08:19:32;;;;;;;18.77;6.90;;;21.10;55.80;;;;;;5114234;27;20454;-57
2023/05/26 08:21:59;;;;;;;17.07;6.97;;;21.30;55.60;;;;;;5114205;28;20451;-58
2023/05/26 08:24:26;;;;;;;18.00;6.73;;;21.50;55.20;;;;;;5114105;28;20454;-57
2023/05/26 08:26:52;;;;;;;18.30;6.70;;;21.70;54.90;;;;;;5114049;28;20532;-57
2023/05/26 08:29:19;;;;;;;20.67;6.60;;;21.90;54.30;;;;;;5113731;28;20958;-58
2023/05/26 08:31:46;;;;;;;19.03;6.77;;;22.00;53.30;;;;;;5113646;28;20474;-57
2023/05/26 08:34:12;;;;;;;17.90;6.10;;;22.10;53.10;;;;;;5114495;28;20458;-57
2023/05/26 08:36:40;;;;;;;17.20;6.87;;;22.20;53.00;;;;;;5115559;28;20467;-57
2023/05/26 08:39:07;;;;;;;17.80;7.30;;;22.30;52.40;;;;;;5115031;28;20446;-57
2023/05/26 08:41:45;;;;;;;16.60;6.73;;;22.40;52.40;;;;;;5113593;28;20945;-58
2023/05/26 08:44:16;;;;;;;16.13;7.00;;;22.50;52.70;;;;;;5113818;28;20422;-58
2023/05/26 08:46:45;;;;;;;18.63;6.53;;;22.70;52.10;;;;;;5113424;28;20984;-57
2023/05/26 08:49:15;;;;;;;16.87;6.37;;;22.80;51.60;;;;;;5113764;28;20897;-57
2023/05/26 08:51:47;;;;;;;19.47;7.00;;;23.00;51.40;;;;;;5113719;28;20493;-57
2023/05/26 08:54:14;;;;;;;16.67;6.07;;;23.20;50.90;;;;;;5113760;28;20446;-58
2023/05/26 08:56:41;;;;;;;14.70;6.70;;;23.30;50.50;;;;;;5113686;28;20489;-58
2023/05/26 08:59:09;;;;;;;19.00;7.37;;;23.40;50.10;;;;;;5113662;28;20454;-58
2023/05/26 09:01:36;;;;;;;20.90;8.30;;;23.50;49.60;;;;;;5113641;28;20443;-57
2023/05/26 09:04:03;;;;;;;20.13;6.80;;;23.60;49.40;;;;;;5113345;28;20932;-58
2023/05/26 09:06:31;;;;;;;21.27;6.40;;;23.70;48.90;;;;;;5113576;28;20474;-58
2023/05/26 09:08:59;;;;;;;16.10;5.90;;;23.90;49.10;;;;;;5113577;28;20453;-58
2023/05/26 09:11:27;;;;;;;14.83;6.20;;;23.90;48.40;;;;;;5113265;28;20490;-58
2023/05/26 09:13:55;;;;;;;18.87;6.57;;;24.10;48.20;;;;;;5113572;28;20449;-58
2023/05/26 09:16:25;;;;;;;16.90;6.50;;;24.20;48.20;;;;;;5117123;28;20817;-58
2023/05/26 09:18:57;;;;;;;19.07;6.33;;;24.40;48.00;;;;;;5117761;28;20508;-58
2023/05/26 09:21:25;;;;;;;17.23;6.20;;;24.60;47.50;;;;;;5117533;28;20447;-58
2023/05/26 09:23:55;;;;;;;18.23;7.47;;;24.90;47.40;;;;;;5117180;28;20443;-58
2023/05/26 09:26:28;;;;;;;16.57;6.53;;;25.10;47.30;;;;;;5117349;28;20470;-58
2023/05/26 09:28:55;;;;;;;18.10;6.67;;;25.30;46.00;;;;;;5117148;28;20917;-58
2023/05/26 09:31:22;;;;;;;21.67;7.63;;;25.40;45.70;;;;;;5117282;28;20482;-58
2023/05/26 09:33:48;;;;;;;18.10;6.90;;;25.60;45.50;;;;;;5117093;28;20944;-58
2023/05/26 09:36:17;;;;;;;16.60;6.77;;;25.70;44.70;;;;;;5117268;28;20466;-58
2023/05/26 09:38:44;;;;;;;22.37;7.37;;;26.00;44.70;;;;;;5116860;28;20442;-58
2023/05/26 09:41:11;;;;;;;17.07;5.60;;;26.10;43.80;;;;;;5117335;28;20439;-58
2023/05/26 09:43:39;;;;;;;19.47;6.03;;;26.30;43.70;;;;;;5117207;28;20474;-58
2023/05/26 09:46:21;;;;;;;16.40;6.40;;;26.50;42.40;;;;;;5117592;28;20470;-58
2023/05/26 09:48:50;;;;;;;19.67;6.40;;;26.60;41.90;;;;;;5117191;28;20448;-58
2023/05/26 09:51:20;;;;;;;18.03;5.80;;;26.80;42.20;;;;;;5117191;28;20483;-58
2023/05/26 09:53:46;;;;;;;18.63;7.10;;;27.00;41.80;;;;;;5117277;28;20499;-58
2023/05/26 09:56:15;;;;;;;18.23;6.70;;;27.20;41.10;;;;;;5116933;28;20470;-58
2023/05/26 09:58:47;;;;;;;15.77;6.00;;;27.50;40.90;;;;;;5117065;28;20577;-58
2023/05/26 10:01:15;;;;;;;16.33;6.83;;;27.70;41.10;;;;;;5117138;28;20440;-58
2023/05/26 10:03:42;;;;;;;16.20;6.70;;;28.00;39.80;;;;;;5116917;28;20446;-58
2023/05/26 10:06:08;;;;;;;17.20;6.47;;;28.30;39.10;;;;;;5116930;28;20471;-58
2023/05/26 10:08:39;;;;;;;20.73;6.30;;;28.50;38.70;;;;;;5116804;28;20451;-58
2023/05/26 10:11:06;;;;;;;16.10;6.20;;;28.80;38.20;;;;;;5116913;28;20577;-58
2023/05/26 10:13:34;;;;;;;17.87;6.60;;;29.10;37.40;;;;;;5116712;28;20450;-58
2023/05/26 10:16:03;;;;;;;21.33;8.10;;;29.40;36.90;;;;;;5116550;28;20488;-58
2023/05/26 10:18:29;;;;;;;18.30;6.93;;;29.80;35.90;;;;;;5116728;28;20442;-57
2023/05/26 10:21:00;;;;;;;19.10;7.00;;;30.10;34.60;;;;;;5116510;28;20449;-58
2023/05/26 10:23:35;;;;;;;19.10;6.90;;;30.40;34.70;;;;;;5116137;28;20967;-55
2023/05/26 10:26:08;;;;;;;19.60;7.40;;;30.80;33.80;;;;;;5114934;28;20476;-56
2023/05/26 10:28:39;;;;;;;13.47;6.63;;;31.10;33.30;;;;;;5116335;28;20434;-55
2023/05/26 10:31:07;;;;;;;14.77;6.73;;;31.40;32.50;;;;;;5115976;28;20843;-56
2023/05/26 10:33:41;;;;;;;15.27;6.57;;;31.70;31.70;;;;;;5116266;28;20450;-56
2023/05/26 10:36:10;;;;;;;13.93;5.97;;;32.00;31.10;;;;;;5115922;28;20967;-56
2023/05/26 10:38:43;;;;;;;19.40;6.80;;;32.40;30.20;;;;;;5116697;28;20550;-57
2023/05/26 10:41:12;;;;;;;16.20;7.90;;;32.80;29.90;;;;;;5115946;28;20833;-59
2023/05/26 10:43:39;;;;;;;15.40;7.00;;;33.20;29.80;;;;;;5116661;28;20530;-57
2023/05/26 10:46:07;;;;;;;17.93;7.00;;;33.60;28.60;;;;;;5115998;28;20488;-57
2023/05/26 10:48:35;;;;;;;17.00;6.43;;;34.00;28.10;;;;;;5115930;28;20856;-56
2023/05/26 10:51:16;;;;;;;14.87;7.03;;;34.40;27.50;;;;;;5115755;28;20525;-57
2023/05/26 10:53:44;;;;;;;15.47;6.53;;;34.80;27.00;;;;;;5115515;28;20809;-57
2023/05/26 10:56:13;;;;;;;15.37;6.00;;;35.30;26.90;;;;;;5115758;28;20216;-57
2023/05/26 10:58:42;;;;;;;14.57;7.10;;;35.60;25.40;;;;;;5115409;28;20204;-57
2023/05/26 11:01:16;;;;;;;19.00;7.53;;;36.00;25.20;;;;;;5115471;28;20731;-57
2023/05/26 11:03:44;;;;;;;21.07;7.80;;;36.40;24.80;;;;;;5115377;28;20187;-57
2023/05/26 11:06:13;;;;;;;17.38;7.03;;;36.70;24.60;;;;;;5115539;28;20273;-57
2023/05/26 11:08:41;;;;;;;16.95;6.82;;;37.00;24.60;;;;;;5115570;28;20205;-57
2023/05/26 11:11:09;;;;;;;19.35;7.63;;;37.40;24.40;;;;;;5115187;28;20228;-57
2023/05/26 11:13:44;;;;;;;20.60;8.10;;;37.70;23.10;;;;;;5115407;28;20204;-57
2023/05/26 11:16:20;;;;;;;16.17;7.57;;;38.00;22.90;;;;;;5115404;28;20216;-57
2023/05/26 11:18:49;;;;;;;15.50;6.40;;;38.20;23.10;;;;;;5115118;28;20665;-57
2023/05/26 11:21:16;;;;;;;14.63;6.75;;;38.40;22.90;;;;;;5115252;28;20192;-57
2023/05/26 11:23:43;;;;;;;14.02;6.93;;;38.60;22.30;;;;;;5114904;28;20686;-57
2023/05/26 11:26:14;;;;;;;18.27;7.50;;;38.80;22.30;;;;;;5114886;28;20778;-57
2023/05/26 11:28:44;;;;;;;15.43;7.45;;;39.10;22.00;;;;;;5114877;28;20597;-57
2023/05/26 11:31:12;;;;;;;13.95;6.20;;;39.30;22.00;;;;;;5115091;28;20224;-57
2023/05/26 11:33:42;;;;;;;14.65;7.03;;;39.50;21.40;;;;;;5114793;28;20204;-57
2023/05/26 11:36:09;;;;;;;16.48;6.25;;;39.80;21.60;;;;;;5114920;28;20224;-57
2023/05/26 11:38:36;;;;;;;11.38;6.25;;;39.90;21.10;;;;;;5114636;28;20204;-57
2023/05/26 11:41:05;;;;;;;13.68;6.93;;;40.20;20.60;;;;;;5114907;28;20235;-57
2023/05/26 11:43:31;;;;;;;13.13;6.15;;;40.30;20.60;;;;;;5115044;28;20204;-57
2023/05/26 11:46:03;;;;;;;14.90;6.53;;;40.50;20.30;;;;;;5114740;28;20224;-57
2023/05/26 11:48:35;;;;;;;12.82;6.50;;;40.70;20.60;;;;;;5114895;27;20267;-57
2023/05/26 11:51:06;;;;;;;13.90;6.15;;;40.80;19.80;;;;;;5114749;28;20270;-57
2023/05/26 11:53:33;;;;;;;12.05;5.90;;;40.90;20.00;;;;;;5114708;28;20181;-57
2023/05/26 11:56:04;;;;;;;11.38;5.68;;;41.00;19.90;;;;;;5114578;28;20221;-57
2023/05/26 11:58:33;;;;;;;15.30;6.30;;;41.30;19.80;;;;;;5114625;28;20207;-57
2023/05/26 12:01:01;;;;;;;15.93;6.97;;;41.40;19.50;;;;;;5114585;28;20201;-57
2023/05/26 12:03:28;;;;;;;12.30;5.93;;;41.50;19.50;;;;;;5114555;28;20204;-57
2023/05/26 12:06:16;;;;;;;12.95;6.30;;;41.60;19.40;;;;;;5114974;28;20223;-57
2023/05/26 12:08:44;;;;;;;11.88;6.20;;;41.80;19.30;;;;;;5114625;27;20212;-57
2023/05/26 12:11:20;;;;;;;12.13;6.32;;;41.80;18.70;;;;;;5113956;28;20228;-57
2023/05/26 12:13:48;;;;;;;13.02;6.10;;;41.90;19.20;;;;;;5114365;28;20184;-57
2023/05/26 12:16:24;;;;;;;14.40;6.75;;;41.80;19.00;;;;;;5113863;28;20225;-57
2023/05/26 12:18:55;;;;;;;12.18;5.93;;;41.80;18.90;;;;;;5114210;28;20223;-57
2023/05/26 12:21:25;;;;;;;12.32;6.30;;;41.90;19.00;;;;;;5113850;28;20203;-57
2023/05/26 12:23:52;;;;;;;16.70;7.88;;;42.10;19.00;;;;;;5114187;28;20207;-57
2023/05/26 12:26:22;;;;;;;12.40;6.85;;;42.40;18.70;;;;;;5113755;28;20728;-57
2023/05/26 12:29:09;;;;;;;10.95;5.80;;;42.60;18.30;;;;;;5114093;28;20216;-57
2023/05/26 12:31:44;;;;;;;12.75;6.18;;;42.90;18.00;;;;;;5113741;28;20209;-57
2023/05/26 12:34:14;;;;;;;13.55;6.43;;;43.00;17.90;;;;;;5114853;28;20199;-57
2023/05/26 12:36:42;;;;;;;13.85;5.68;;;43.20;17.90;;;;;;5113986;28;20228;-57
2023/05/26 12:39:09;;;;;;;11.18;5.90;;;43.30;17.70;;;;;;5113953;28;20211;-57
2023/05/26 12:41:36;;;;;;;11.73;6.63;;;43.60;17.60;;;;;;5113851;28;20192;-57